Time;durP1;ratioP1;P1;durP2;ratioP2;P2;SDS_P1;SDS_P2;PMS_P1;PMS_P2;Temp;Humidity;BMP_temperature;BMP_pressure;BME280_temperature;BME280_humidity;BME280_pressure;Samples;Min_cycle;Max_cycle;Signal;HPM_P1;HPM_P2
2023/05/05 00:00:14;;;;;;;;;3.00;3.00;;;;;18.18;47.57;99474.69;5091775;27;45481;-76
2023/05/05 00:02:40;;;;;;;;;2.50;2.50;;;;;18.11;47.80;99471.56;5077323;27;45468;-76
2023/05/05 00:05:06;;;;;;;;;3.00;3.00;;;;;18.05;48.50;99466.63;5093453;27;45374;-76
2023/05/05 00:07:31;;;;;;;;;4.00;3.00;;;;;17.95;48.58;99470.84;5082769;27;45437;-76
2023/05/05 00:09:56;;;;;;;;;5.00;3.75;;;;;17.85;48.58;99475.94;5079300;27;45373;-76
2023/05/05 00:12:22;;;;;;;;;3.50;3.25;;;;;17.76;48.98;99460.53;5090355;27;45570;-76
2023/05/05 00:14:47;;;;;;;;;1.00;1.00;;;;;17.69;49.01;99473.38;5091314;27;45547;-76
2023/05/05 00:17:13;;;;;;;;;4.00;3.75;;;;;17.62;49.44;99465.81;5088747;27;45354;-76
2023/05/05 00:19:39;;;;;;;;;4.50;4.50;;;;;17.58;48.76;99464.31;5094579;27;45383;-76
2023/05/05 00:22:05;;;;;;;;;4.00;3.00;;;;;17.55;49.32;99465.38;5090212;27;45415;-76
2023/05/05 00:24:30;;;;;;;;;4.00;4.00;;;;;17.51;49.62;99463.00;5070941;28;48152;-76
2023/05/05 00:26:56;;;;;;;;;2.25;2.25;;;;;17.47;49.21;99469.47;5080725;27;45483;-76
2023/05/05 00:29:21;;;;;;;;;4.00;3.00;;;;;17.39;49.29;99465.47;5092896;27;45406;-76
2023/05/05 00:31:50;;;;;;;;;3.00;3.00;;;;;17.34;50.42;99464.03;5092122;27;45494;-76
2023/05/05 00:34:16;;;;;;;;;3.75;3.75;;;;;17.28;50.31;99470.59;5084438;27;45423;-76
2023/05/05 00:36:41;;;;;;;;;4.00;4.00;;;;;17.25;50.47;99461.97;5075901;27;45540;-76
2023/05/05 00:39:07;;;;;;;;;3.00;3.00;;;;;17.23;51.03;99463.88;5084308;27;45374;-76
2023/05/05 00:41:32;;;;;;;;;3.00;3.00;;;;;17.22;50.89;99459.50;5091126;27;45451;-76
2023/05/05 00:43:57;;;;;;;;;3.25;3.00;;;;;17.20;50.81;99461.38;5091031;27;45419;-76
2023/05/05 00:46:26;;;;;;;;;5.00;3.25;;;;;17.18;51.36;99456.16;5088294;27;45424;-77
2023/05/05 00:48:52;;;;;;;;;3.40;3.40;;;;;17.17;51.14;99467.75;5088025;27;45383;-76
2023/05/05 00:51:19;;;;;;;;;4.00;4.00;;;;;17.12;51.85;99459.19;5086227;27;45431;-76
2023/05/05 00:53:45;;;;;;;;;4.00;4.00;;;;;17.09;51.75;99470.88;5069621;27;47718;-76
2023/05/05 00:56:26;;;;;;;;;5.00;3.20;;;;;17.05;51.88;99466.72;5087521;27;45394;-76
2023/05/05 00:58:51;;;;;;;;;5.25;4.25;;;;;16.98;52.24;99465.34;5069076;27;45521;-76
2023/05/05 01:01:17;;;;;;;;;4.00;4.00;;;;;16.93;52.32;99471.91;5094500;27;45499;-75
2023/05/05 01:03:42;;;;;;;;;4.00;4.00;;;;;16.88;51.93;99472.19;5089707;27;45515;-76
2023/05/05 01:06:14;;;;;;;;;5.50;5.25;;;;;16.85;52.29;99475.03;5090676;27;45451;-76
2023/05/05 01:09:10;;;;;;;;;5.00;4.00;;;;;16.83;52.72;99470.75;5067543;27;45427;-76
2023/05/05 01:12:13;;;;;;;;;5.00;4.00;;;;;16.79;52.59;99474.53;5080744;27;45484;-76
2023/05/05 01:14:46;;;;;;;;;3.00;3.00;;;;;16.76;52.63;99459.59;5067718;27;46674;-76
2023/05/05 01:17:18;;;;;;;;;3.80;3.80;;;;;16.77;53.22;99463.13;5088678;27;45384;-76
2023/05/05 01:19:58;;;;;;;;;4.50;4.50;;;;;16.73;53.13;99463.34;5093680;27;45366;-76
2023/05/05 01:22:33;;;;;;;;;4.00;4.00;;;;;16.69;52.85;99460.94;5070893;28;45432;-76
2023/05/05 01:25:19;;;;;;;;;5.00;5.00;;;;;16.67;52.64;99462.81;5087456;27;46419;-76
2023/05/05 01:27:58;;;;;;;;;4.00;3.80;;;;;16.66;53.36;99459.31;5092800;27;45719;-77
2023/05/05 01:30:29;;;;;;;;;5.50;4.00;;;;;16.66;54.19;99463.78;5087909;27;45490;-76
2023/05/05 01:33:02;;;;;;;;;4.50;4.50;;;;;16.58;53.77;99461.53;5088236;27;45390;-77
2023/05/05 01:35:31;;;;;;;;;3.75;3.00;;;;;16.53;53.51;99463.63;5070933;27;46505;-76
2023/05/05 01:38:25;;;;;;;;;3.80;3.40;;;;;16.49;52.81;99463.88;5089518;27;45444;-76
2023/05/05 01:41:15;;;;;;;;;5.50;5.50;;;;;16.49;53.50;99461.22;5087336;27;45521;-76
2023/05/05 01:43:44;;;;;;;;;3.00;3.00;;;;;16.51;53.20;99464.66;5064914;27;45363;-76
2023/05/05 01:46:11;;;;;;;;;4.50;4.50;;;;;16.53;53.43;99465.41;5087539;27;45531;-76
2023/05/05 01:48:38;;;;;;;;;4.00;3.80;;;;;16.53;53.76;99455.63;5089808;27;45428;-76
2023/05/05 01:51:05;;;;;;;;;5.00;4.00;;;;;16.56;54.37;99463.44;5069998;27;45432;-76
2023/05/05 01:53:32;;;;;;;;;5.00;4.00;;;;;16.54;54.00;99462.66;5089458;27;45486;-76
2023/05/05 01:55:58;;;;;;;;;4.00;4.00;;;;;16.50;54.18;99460.28;5086390;27;46323;-76
2023/05/05 01:58:26;;;;;;;;;6.50;4.75;;;;;16.47;54.29;99460.44;5060578;27;45345;-76
2023/05/05 02:00:55;;;;;;;;;3.25;3.25;;;;;16.46;54.29;99461.38;5091403;27;45466;-76
2023/05/05 02:03:23;;;;;;;;;8.75;5.00;;;;;16.44;54.13;99456.16;5091000;27;45512;-76
2023/05/05 02:05:50;;;;;;;;;4.00;4.00;;;;;16.45;54.14;99467.66;5086965;27;46365;-76
2023/05/05 02:08:16;;;;;;;;;4.40;4.40;;;;;16.44;54.43;99463.28;5072528;27;45798;-76
2023/05/05 02:10:43;;;;;;;;;5.25;4.00;;;;;16.42;54.83;99461.56;5085868;27;45457;-76
2023/05/05 02:13:11;;;;;;;;;4.00;4.00;;;;;16.44;54.96;99468.59;5082138;27;45495;-76
2023/05/05 02:15:38;;;;;;;;;5.00;5.00;;;;;16.43;55.00;99462.41;5092087;27;45385;-76
2023/05/05 02:18:06;;;;;;;;;5.80;4.40;;;;;16.42;55.63;99465.19;5091444;27;45456;-76
2023/05/05 02:20:32;;;;;;;;;5.75;5.75;;;;;16.39;55.48;99466.22;5087224;27;45323;-76
2023/05/05 02:22:59;;;;;;;;;5.00;4.00;;;;;16.33;55.21;99461.25;5081016;27;45495;-76
2023/05/05 02:25:37;;;;;;;;;6.75;6.00;;;;;16.32;55.64;99462.19;5084203;27;46137;-77
2023/05/05 02:28:04;;;;;;;;;4.00;4.00;;;;;16.25;55.82;99460.84;5092214;27;45435;-76
2023/05/05 02:30:33;;;;;;;;;4.75;4.25;;;;;16.16;55.20;99461.38;5091584;27;45503;-76
2023/05/05 02:33:06;;;;;;;;;4.75;3.75;;;;;16.09;55.32;99460.03;5076924;27;45565;-76
2023/05/05 02:35:39;;;;;;;;;5.00;5.00;;;;;16.01;55.07;99471.94;5090751;27;46168;-76
2023/05/05 02:38:11;;;;;;;;;4.50;4.50;;;;;15.96;55.47;99465.16;5095017;27;45373;-76
2023/05/05 02:40:40;;;;;;;;;4.50;4.00;;;;;15.92;55.90;99463.66;5089769;27;45464;-76
2023/05/05 02:43:10;;;;;;;;;4.00;4.00;;;;;15.91;55.60;99462.78;5086325;27;45544;-76
2023/05/05 02:45:35;;;;;;;;;3.50;3.50;;;;;15.91;55.72;99468.09;5087921;27;45558;-76
2023/05/05 02:48:02;;;;;;;;;4.50;4.50;;;;;15.91;56.20;99469.91;5081184;27;45428;-76
2023/05/05 02:50:30;;;;;;;;;4.50;4.50;;;;;15.88;55.72;99462.94;5092584;27;45401;-77
2023/05/05 02:52:56;;;;;;;;;4.00;4.00;;;;;15.88;56.11;99464.75;5091319;27;45333;-76
2023/05/05 02:55:22;;;;;;;;;5.25;5.25;;;;;15.86;56.94;99467.50;5090714;27;46375;-76
2023/05/05 02:58:03;;;;;;;;;6.00;6.00;;;;;15.86;56.54;99466.63;5087531;27;45415;-76
2023/05/05 03:00:35;;;;;;;;;4.75;4.25;;;;;15.84;56.81;99460.53;5090558;27;45420;-76
2023/05/05 03:03:12;;;;;;;;;1.50;1.50;;;;;15.84;57.22;99463.19;5069423;28;45419;-76
2023/05/05 03:05:48;;;;;;;;;8.25;6.25;;;;;15.81;57.40;99466.03;5083508;27;45696;-76
2023/05/05 03:08:25;;;;;;;;;5.60;4.60;;;;;15.77;57.19;99454.69;5064310;27;45377;-76
2023/05/05 03:11:17;;;;;;;;;6.25;6.25;;;;;15.75;57.10;99458.41;5080343;27;45420;-76
2023/05/05 03:13:46;;;;;;;;;6.75;6.75;;;;;15.72;57.26;99464.75;5082466;27;45417;-76
2023/05/05 03:16:15;;;;;;;;;5.75;5.75;;;;;15.68;57.68;99455.22;5092828;27;45589;-76
2023/05/05 03:18:41;;;;;;;;;6.25;6.25;;;;;15.64;58.00;99462.50;5092216;27;45396;-76
2023/05/05 03:21:08;;;;;;;;;5.00;5.00;;;;;15.60;57.80;99457.44;5094922;27;45306;-76
2023/05/05 03:23:35;;;;;;;;;7.50;6.50;;;;;15.59;57.99;99461.03;5090961;27;45553;-76
2023/05/05 03:26:00;;;;;;;;;9.25;8.00;;;;;15.58;58.31;99454.88;5084345;27;47914;-76
2023/05/05 03:28:26;;;;;;;;;5.00;5.00;;;;;15.56;57.86;99454.13;5091049;27;45566;-76
2023/05/05 03:30:52;;;;;;;;;9.25;7.00;;;;;15.55;57.85;99447.09;5087744;27;45504;-76
2023/05/05 03:33:18;;;;;;;;;9.00;9.00;;;;;15.55;57.66;99447.09;5083002;27;45423;-76
2023/05/05 03:35:43;;;;;;;;;8.50;8.50;;;;;15.56;57.53;99450.59;5090587;27;45472;-76
2023/05/05 03:38:09;;;;;;;;;8.50;8.50;;;;;15.55;57.66;99448.84;5083787;27;45478;-76
2023/05/05 03:40:34;;;;;;;;;13.25;8.25;;;;;15.53;58.12;99443.63;5088661;27;45402;-76
2023/05/05 03:42:59;;;;;;;;;8.00;8.00;;;;;15.52;58.15;99449.88;5084656;27;45448;-76
2023/05/05 03:45:25;;;;;;;;;8.00;7.25;;;;;15.51;57.93;99448.16;5084173;27;46306;-76
2023/05/05 03:47:50;;;;;;;;;9.00;8.25;;;;;15.48;58.00;99440.34;5071019;27;45507;-76
2023/05/05 03:50:16;;;;;;;;;7.00;7.00;;;;;15.47;58.05;99446.59;5062933;28;45275;-76
2023/05/05 03:52:41;;;;;;;;;9.25;7.75;;;;;15.48;58.01;99444.78;5074467;27;45559;-76
2023/05/05 03:55:07;;;;;;;;;8.00;8.00;;;;;15.47;57.90;99443.06;5093594;27;45478;-76
2023/05/05 03:57:33;;;;;;;;;7.25;7.00;;;;;15.47;57.93;99443.94;5076026;27;45350;-76
2023/05/05 03:59:59;;;;;;;;;8.50;8.50;;;;;15.46;57.95;99447.53;5077337;27;45522;-76
2023/05/05 04:02:24;;;;;;;;;9.50;8.25;;;;;15.43;57.80;99447.69;5091219;27;45522;-76
2023/05/05 04:04:49;;;;;;;;;9.00;9.00;;;;;15.41;58.07;99451.41;5087553;27;45460;-76
2023/05/05 04:07:15;;;;;;;;;8.75;8.75;;;;;15.38;58.24;99440.94;5089050;27;45478;-76
2023/05/05 04:09:43;;;;;;;;;10.50;9.00;;;;;15.36;58.36;99443.69;5075435;27;45388;-76
2023/05/05 04:12:11;;;;;;;;;11.50;9.75;;;;;15.35;58.61;99440.16;5088530;27;45397;-76
2023/05/05 04:14:37;;;;;;;;;8.00;8.00;;;;;15.34;58.46;99438.44;5086466;27;45607;-76
2023/05/05 04:17:03;;;;;;;;;9.75;9.00;;;;;15.34;58.63;99441.09;5078147;27;45465;-76
2023/05/05 04:19:31;;;;;;;;;11.00;11.00;;;;;15.35;58.48;99439.31;5085361;27;45289;-76
2023/05/05 04:21:56;;;;;;;;;13.25;10.00;;;;;15.33;58.75;99441.19;5076026;27;45885;-76
2023/05/05 04:24:23;;;;;;;;;10.00;10.00;;;;;15.29;58.86;99450.25;5090509;27;46404;-76
2023/05/05 04:26:50;;;;;;;;;9.00;9.00;;;;;15.24;58.94;99447.00;5094831;27;45442;-76
2023/05/05 04:29:16;;;;;;;;;12.00;11.00;;;;;15.20;59.31;99442.78;5086732;27;45460;-77
2023/05/05 04:31:41;;;;;;;;;9.75;9.75;;;;;15.19;59.08;99446.38;5093163;27;45433;-76
2023/05/05 04:34:07;;;;;;;;;10.00;9.00;;;;;15.20;59.28;99448.97;5091816;27;45436;-76
2023/05/05 04:36:32;;;;;;;;;12.00;10.50;;;;;15.19;59.37;99447.25;5093029;27;45348;-76
2023/05/05 04:38:57;;;;;;;;;9.50;9.25;;;;;15.22;59.33;99452.41;5090901;27;45540;-76
2023/05/05 04:41:23;;;;;;;;;10.50;10.50;;;;;15.23;59.62;99454.13;5083606;27;45401;-76
2023/05/05 04:43:48;;;;;;;;;10.00;10.00;;;;;15.23;59.80;99455.91;5093658;27;45600;-76
2023/05/05 04:46:14;;;;;;;;;9.75;9.75;;;;;15.24;59.77;99450.53;5092698;27;45527;-76
2023/05/05 04:48:39;;;;;;;;;12.75;11.75;;;;;15.28;60.15;99456.50;5092314;27;45590;-76
2023/05/05 04:51:05;;;;;;;;;9.00;9.00;;;;;15.30;60.15;99458.13;5092281;27;45538;-76
2023/05/05 04:53:31;;;;;;;;;12.75;9.75;;;;;15.32;60.20;99463.38;5092206;27;46292;-76
2023/05/05 04:55:58;;;;;;;;;10.00;9.25;;;;;15.35;60.60;99465.88;5090951;27;45427;-76
2023/05/05 04:58:24;;;;;;;;;12.50;10.25;;;;;15.39;60.82;99454.16;5086177;27;45467;-76
2023/05/05 05:00:49;;;;;;;;;18.75;16.75;;;;;15.45;60.54;99466.22;5090275;27;45513;-76
2023/05/05 05:03:14;;;;;;;;;11.50;10.50;;;;;15.48;60.46;99460.75;5076151;27;46695;-76
2023/05/05 05:05:40;;;;;;;;;10.75;9.75;;;;;15.51;60.49;99460.59;5093615;27;45431;-76
2023/05/05 05:08:05;;;;;;;;;15.25;11.50;;;;;15.54;60.35;99461.28;5094603;27;45411;-76
2023/05/05 05:10:31;;;;;;;;;10.50;9.00;;;;;15.60;60.46;99468.06;5065166;27;45986;-76
2023/05/05 05:12:56;;;;;;;;;11.00;9.75;;;;;15.65;60.43;99472.19;5091242;27;45375;-76
2023/05/05 05:15:21;;;;;;;;;12.00;9.00;;;;;15.74;60.26;99475.31;5079412;27;45316;-76
2023/05/05 05:17:47;;;;;;;;;8.75;7.75;;;;;15.78;60.04;99472.38;5093705;27;45360;-76
2023/05/05 05:20:12;;;;;;;;;11.50;10.50;;;;;15.84;59.97;99479.16;5083192;27;45425;-76
2023/05/05 05:22:37;;;;;;;;;10.25;9.75;;;;;15.90;60.05;99478.81;5083653;27;46178;-75
2023/05/05 05:25:03;;;;;;;;;10.75;9.75;;;;;15.97;59.73;99475.72;5080636;27;45486;-75
2023/05/05 05:27:29;;;;;;;;;10.00;9.50;;;;;16.04;59.68;99470.91;5072960;27;45290;-67
2023/05/05 05:29:54;;;;;;;;;12.00;9.50;;;;;16.15;60.02;99470.28;5077470;27;45335;-62
2023/05/05 05:32:20;;;;;;;;;9.00;9.00;;;;;16.22;59.32;99469.88;5078395;27;45367;-62
2023/05/05 05:34:45;;;;;;;;;11.00;10.75;;;;;16.26;59.37;99473.19;5076688;27;45512;-63
2023/05/05 05:37:10;;;;;;;;;10.75;8.50;;;;;16.31;59.41;99471.13;5077894;27;45382;-62
2023/05/05 05:39:36;;;;;;;;;8.50;8.50;;;;;16.36;59.06;99477.06;5083283;27;45591;-62
2023/05/05 05:42:02;;;;;;;;;12.25;11.25;;;;;16.40;58.77;99476.78;5081117;27;45588;-62
2023/05/05 05:44:28;;;;;;;;;9.25;9.25;;;;;16.42;58.56;99482.84;5076539;27;45425;-62
2023/05/05 05:46:53;;;;;;;;;8.25;7.75;;;;;16.45;58.53;99489.81;5085546;27;45467;-62
2023/05/05 05:49:19;;;;;;;;;0.00;0.00;;;;;16.51;58.53;99483.28;5083648;27;45773;-62
2023/05/05 05:51:44;;;;;;;;;10.00;8.25;;;;;16.58;58.44;99484.66;5082563;27;45517;-62
2023/05/05 05:54:09;;;;;;;;;9.25;8.25;;;;;16.65;58.08;99488.69;5081973;27;45486;-63
2023/05/05 05:56:35;;;;;;;;;7.00;7.00;;;;;16.70;57.98;99492.78;5088063;27;45723;-63
2023/05/05 05:59:00;;;;;;;;;7.75;7.50;;;;;16.76;57.56;99485.41;5082009;27;45481;-63
2023/05/05 06:01:26;;;;;;;;;7.50;7.50;;;;;16.79;57.56;99485.19;5089319;27;45701;-61
2023/05/05 06:03:51;;;;;;;;;8.75;8.00;;;;;16.84;57.60;99480.47;5094032;27;45534;-61
2023/05/05 06:06:17;;;;;;;;;13.25;9.50;;;;;16.89;56.96;99476.56;5091690;27;45519;-62
2023/05/05 06:08:42;;;;;;;;;8.25;8.25;;;;;16.93;57.23;99470.09;5083140;27;45802;-62
2023/05/05 06:11:08;;;;;;;;;10.25;7.25;;;;;17.01;57.12;99472.31;5090892;27;45870;-62
2023/05/05 06:13:33;;;;;;;;;8.25;8.25;;;;;17.06;56.95;99470.22;5082230;27;45284;-62
2023/05/05 06:15:59;;;;;;;;;8.75;7.00;;;;;17.12;56.98;99479.63;5087523;27;45559;-63
2023/05/05 06:18:24;;;;;;;;;9.00;9.00;;;;;17.15;56.80;99466.13;5076022;27;45424;-63
2023/05/05 06:20:51;;;;;;;;;8.25;8.25;;;;;17.13;56.62;99468.88;5088633;27;45630;-63
2023/05/05 06:23:16;;;;;;;;;12.50;12.50;;;;;17.13;57.11;99458.22;5063030;27;45430;-62
2023/05/05 06:25:42;;;;;;;;;11.00;11.00;;;;;17.17;57.21;99469.56;5064182;27;45430;-62
2023/05/05 06:28:07;;;;;;;;;7.00;6.50;;;;;17.18;56.67;99465.94;5093176;27;45498;-62
2023/05/05 06:30:33;;;;;;;;;8.50;8.50;;;;;17.24;56.67;99466.44;5092109;27;45615;-63
2023/05/05 06:32:58;;;;;;;;;8.50;8.50;;;;;17.31;56.90;99467.75;5089915;27;45632;-63
2023/05/05 06:35:24;;;;;;;;;7.50;7.50;;;;;17.36;56.70;99465.66;5088979;27;45486;-62
2023/05/05 06:37:49;;;;;;;;;13.00;12.00;;;;;17.41;56.58;99460.91;5087580;27;45450;-62
2023/05/05 06:40:15;;;;;;;;;8.00;7.50;;;;;17.49;56.56;99462.22;5085406;27;45489;-62
2023/05/05 06:42:40;;;;;;;;;9.25;7.25;;;;;17.56;56.17;99461.75;5076488;27;45407;-63
2023/05/05 06:45:06;;;;;;;;;10.25;8.00;;;;;17.60;55.75;99460.59;5075599;27;45585;-63
2023/05/05 06:47:31;;;;;;;;;10.25;9.25;;;;;17.66;55.51;99452.25;5090346;27;45490;-62
2023/05/05 06:49:57;;;;;;;;;12.00;10.25;;;;;17.72;55.69;99451.00;5088721;27;46213;-63
2023/05/05 06:52:22;;;;;;;;;12.25;8.25;;;;;17.78;55.67;99454.13;5073730;27;45495;-63
2023/05/05 06:54:48;;;;;;;;;10.00;9.25;;;;;17.86;54.98;99453.63;5088794;27;45400;-63
2023/05/05 06:57:13;;;;;;;;;8.50;8.00;;;;;17.91;54.89;99445.34;5092755;27;45494;-63
2023/05/05 06:59:39;;;;;;;;;10.75;10.25;;;;;17.95;54.78;99445.03;5086786;27;45731;-63
2023/05/05 07:02:05;;;;;;;;;11.50;8.50;;;;;18.01;54.80;99449.97;5093379;27;45387;-63
2023/05/05 07:04:30;;;;;;;;;12.25;9.25;;;;;18.05;54.65;99440.81;5086542;27;45538;-63
2023/05/05 07:06:57;;;;;;;;;14.25;11.25;;;;;18.08;54.03;99443.28;5074052;27;45781;-63
2023/05/05 07:09:22;;;;;;;;;11.50;9.00;;;;;18.08;54.28;99442.44;5089066;27;46347;-63
2023/05/05 07:11:48;;;;;;;;;12.25;9.50;;;;;18.06;53.87;99439.88;5092761;27;45462;-63
2023/05/05 07:14:13;;;;;;;;;9.25;8.25;;;;;18.04;54.39;99436.44;5089272;27;45454;-63
2023/05/05 07:16:39;;;;;;;;;7.50;7.00;;;;;18.11;54.07;99442.19;5091278;27;45530;-63
2023/05/05 07:19:05;;;;;;;;;13.75;9.50;;;;;18.12;53.77;99436.78;5090408;27;45577;-63
2023/05/05 07:21:32;;;;;;;;;14.75;11.25;;;;;18.18;54.32;99437.34;5090438;27;45396;-63
2023/05/05 07:23:57;;;;;;;;;13.75;11.50;;;;;18.24;53.76;99445.81;5090794;27;45416;-62
2023/05/05 07:26:23;;;;;;;;;11.00;8.50;;;;;18.30;54.03;99440.03;5084021;27;45592;-63
2023/05/05 07:28:50;;;;;;;;;10.50;8.00;;;;;18.37;53.53;99443.16;5076328;27;45641;-63
2023/05/05 07:31:18;;;;;;;;;8.20;8.00;;;;;18.45;53.94;99444.34;5065286;27;45480;-63
2023/05/05 07:33:43;;;;;;;;;10.00;8.50;;;;;18.50;53.38;99441.38;5082742;27;45675;-63
2023/05/05 07:36:09;;;;;;;;;6.25;6.00;;;;;18.58;53.27;99440.88;5086956;27;45594;-63
2023/05/05 07:38:34;;;;;;;;;9.75;8.00;;;;;18.64;52.81;99441.31;5086491;27;45787;-63
2023/05/05 07:41:00;;;;;;;;;10.75;9.50;;;;;18.69;53.16;99441.03;5086738;27;45432;-63
2023/05/05 07:43:25;;;;;;;;;8.50;8.50;;;;;18.71;52.44;99442.63;5075906;27;45423;-63
2023/05/05 07:45:51;;;;;;;;;9.00;9.00;;;;;18.72;52.45;99438.16;5072669;27;45534;-64
2023/05/05 07:48:16;;;;;;;;;8.50;7.50;;;;;18.75;52.00;99430.78;5075669;27;45487;-64
2023/05/05 07:50:41;;;;;;;;;10.00;8.00;;;;;18.77;51.97;99426.16;5087357;27;45384;-64
2023/05/05 07:53:07;;;;;;;;;5.25;3.00;;;;;18.78;51.04;99425.19;5075261;27;45795;-64
2023/05/05 07:55:32;;;;;;;;;7.75;7.75;;;;;18.84;51.59;99426.59;5083111;27;45407;-64
2023/05/05 07:57:57;;;;;;;;;9.00;8.00;;;;;18.93;50.69;99423.31;5086703;27;45522;-65
2023/05/05 08:00:23;;;;;;;;;12.75;10.75;;;;;19.05;51.22;99417.09;5086977;27;45408;-64
2023/05/05 08:02:48;;;;;;;;;9.25;7.50;;;;;19.15;50.51;99412.81;5088979;27;45377;-64
2023/05/05 08:05:15;;;;;;;;;9.00;6.00;;;;;19.28;50.62;99415.47;5082449;27;45577;-64
2023/05/05 08:07:40;;;;;;;;;6.75;6.50;;;;;19.46;50.16;99414.16;5086016;27;45643;-64
2023/05/05 08:10:10;;;;;;;;;7.75;7.75;;;;;19.64;50.00;99405.78;5088367;27;45368;-64
2023/05/05 08:12:36;;;;;;;;;11.00;9.50;;;;;19.83;50.19;99398.13;5090300;27;45533;-63
2023/05/05 08:15:02;;;;;;;;;8.00;6.00;;;;;20.04;49.39;99396.56;5088583;27;45479;-64
2023/05/05 08:17:28;;;;;;;;;4.25;4.25;;;;;20.21;49.71;99393.47;5089407;27;45498;-64
2023/05/05 08:19:53;;;;;;;;;8.75;7.50;;;;;20.36;49.04;99398.63;5090276;27;45477;-64
2023/05/05 08:22:20;;;;;;;;;8.00;8.00;;;;;20.45;48.42;99396.13;5086499;27;45504;-64
2023/05/05 08:24:46;;;;;;;;;5.25;4.75;;;;;20.58;48.29;99396.06;5086306;27;45579;-64
2023/05/05 08:27:12;;;;;;;;;6.25;6.25;;;;;20.71;48.11;99396.81;5087842;27;45708;-64
2023/05/05 08:29:38;;;;;;;;;7.00;6.80;;;;;20.83;47.38;99387.81;5084184;27;45534;-64
2023/05/05 08:32:04;;;;;;;;;5.75;5.75;;;;;20.94;47.29;99384.31;5089020;27;45511;-64
2023/05/05 08:34:29;;;;;;;;;7.00;6.25;;;;;21.05;47.44;99378.09;5088247;27;45545;-64
2023/05/05 08:36:55;;;;;;;;;6.50;6.50;;;;;21.12;46.87;99373.94;5092716;27;45397;-64
2023/05/05 08:39:21;;;;;;;;;6.75;6.75;;;;;21.14;46.89;99375.53;5081894;27;45419;-64
2023/05/05 08:41:46;;;;;;;;;6.75;6.25;;;;;21.18;46.36;99360.06;5081380;27;45373;-64
2023/05/05 08:44:12;;;;;;;;;7.50;7.25;;;;;21.26;46.62;99360.34;5087413;27;45375;-64
2023/05/05 08:46:38;;;;;;;;;7.00;5.75;;;;;21.31;46.93;99365.31;5083216;27;46287;-64
2023/05/05 08:49:04;;;;;;;;;8.80;7.40;;;;;21.35;46.57;99359.59;5091085;27;45401;-64
2023/05/05 08:51:40;;;;;;;;;7.50;6.75;;;;;21.38;46.13;99353.13;5080652;27;45437;-64
2023/05/05 08:54:12;;;;;;;;;4.25;4.00;;;;;21.42;46.53;99357.28;5071094;27;46058;-64
2023/05/05 08:56:41;;;;;;;;;5.60;5.00;;;;;21.43;46.20;99348.25;5087800;27;46172;-66
2023/05/05 08:59:09;;;;;;;;;7.20;7.20;;;;;21.43;46.13;99345.56;5077564;27;45936;-63
2023/05/05 09:01:35;;;;;;;;;7.75;5.75;;;;;21.41;46.27;99352.91;5072622;27;45456;-63
2023/05/05 09:04:03;;;;;;;;;6.75;6.75;;;;;21.43;45.75;99357.16;5080772;27;45582;-63
2023/05/05 09:06:31;;;;;;;;;8.50;8.00;;;;;21.41;45.42;99352.91;5087940;27;46203;-64
2023/05/05 09:08:56;;;;;;;;;5.00;5.00;;;;;21.37;44.92;99354.13;5085209;27;45388;-64
2023/05/05 09:11:22;;;;;;;;;7.50;4.75;;;;;21.33;45.18;99344.59;5088291;27;45518;-64
2023/05/05 09:13:47;;;;;;;;;6.50;5.25;;;;;21.34;45.39;99347.16;5080295;27;45634;-64
2023/05/05 09:16:13;;;;;;;;;7.75;6.25;;;;;21.34;44.85;99341.78;5087549;27;46618;-64
2023/05/05 09:18:39;;;;;;;;;6.00;6.00;;;;;21.36;44.78;99350.56;5063474;27;45404;-64
2023/05/05 09:21:19;;;;;;;;;5.75;5.75;;;;;21.38;44.93;99345.09;5083478;27;45522;-64
2023/05/05 09:24:04;;;;;;;;;5.00;4.75;;;;;21.44;45.18;99340.09;5089552;27;45465;-64
2023/05/05 09:26:33;;;;;;;;;6.50;6.50;;;;;21.50;44.86;99338.72;5079730;27;46133;-64
2023/05/05 09:28:59;;;;;;;;;4.60;3.80;;;;;21.54;44.82;99333.00;5075735;27;45416;-64
2023/05/05 09:31:26;;;;;;;;;8.00;7.50;;;;;21.59;45.41;99329.94;5084220;27;45407;-64
2023/05/05 09:33:51;;;;;;;;;6.75;6.75;;;;;21.64;45.30;99329.53;5062782;27;45545;-65
2023/05/05 09:36:16;;;;;;;;;8.50;8.00;;;;;21.68;44.72;99323.78;5084829;27;46057;-65
2023/05/05 09:39:03;;;;;;;;;5.00;5.00;;;;;21.75;44.94;99327.69;5074351;27;45425;-65
2023/05/05 09:41:40;;;;;;;;;9.00;7.00;;;;;21.82;43.88;99323.50;5083388;27;45380;-64
2023/05/05 09:44:06;;;;;;;;;7.25;6.00;;;;;21.87;44.43;99325.81;5077843;27;45367;-64
2023/05/05 09:46:31;;;;;;;;;7.25;5.50;;;;;21.90;44.62;99323.72;5064253;28;48329;-64
2023/05/05 09:49:17;;;;;;;;;6.25;6.25;;;;;21.90;44.54;99314.81;5082703;27;45346;-64
2023/05/05 09:51:46;;;;;;;;;5.00;4.00;;;;;21.87;44.50;99313.25;5072776;28;45560;-63
2023/05/05 09:54:28;;;;;;;;;6.00;5.00;;;;;21.86;44.64;99297.25;5072303;28;45519;-62
2023/05/05 09:56:55;;;;;;;;;5.80;5.80;;;;;21.85;44.02;99293.72;5082860;27;45995;-64
2023/05/05 09:59:22;;;;;;;;;6.20;6.20;;;;;21.81;43.89;99286.91;5073654;27;45471;-64
2023/05/05 10:01:48;;;;;;;;;7.40;6.00;;;;;21.78;43.68;99278.28;5085228;27;45289;-64
2023/05/05 10:04:26;;;;;;;;;6.00;6.00;;;;;21.82;44.35;99274.34;5091180;27;45432;-64
2023/05/05 10:06:53;;;;;;;;;6.25;6.25;;;;;21.90;44.38;99272.72;5060313;28;46441;-64
2023/05/05 10:09:18;;;;;;;;;6.40;6.20;;;;;21.97;44.15;99267.66;5074332;27;45485;-64
2023/05/05 10:11:45;;;;;;;;;7.50;7.00;;;;;22.06;43.88;99271.47;5065976;27;45620;-64
2023/05/05 10:14:16;;;;;;;;;6.00;6.00;;;;;22.16;43.76;99265.16;5093068;27;45372;-64
2023/05/05 10:16:53;;;;;;;;;5.50;5.50;;;;;22.29;43.95;99267.63;5093358;27;45733;-64
2023/05/05 10:19:23;;;;;;;;;5.80;5.00;;;;;22.39;43.92;99265.03;5093304;27;45499;-65
2023/05/05 10:21:51;;;;;;;;;5.25;5.25;;;;;22.42;43.34;99273.69;5089759;27;45361;-65
2023/05/05 10:24:22;;;;;;;;;6.50;6.50;;;;;22.42;43.53;99283.56;5072660;28;45394;-66
2023/05/05 10:26:48;;;;;;;;;8.75;7.75;;;;;22.40;44.48;99274.78;5077250;27;45464;-64
2023/05/05 10:29:37;;;;;;;;;7.40;7.40;;;;;22.38;44.29;99276.75;5072912;28;45431;-64
2023/05/05 10:32:08;;;;;;;;;2.00;2.00;;;;;22.38;44.31;99277.63;5072806;28;45440;-64
2023/05/05 10:34:48;;;;;;;;;5.00;5.00;;;;;22.39;44.03;99283.84;5071942;28;45501;-64
2023/05/05 10:37:16;;;;;;;;;5.40;5.40;;;;;22.36;44.23;99276.03;5077413;27;46277;-64
2023/05/05 10:39:43;;;;;;;;;4.20;4.00;;;;;22.35;42.85;99263.59;5072329;28;45523;-65
2023/05/05 10:42:10;;;;;;;;;4.00;4.00;;;;;22.32;43.31;99253.94;5077512;27;45380;-64
2023/05/05 10:44:36;;;;;;;;;5.00;5.00;;;;;22.34;42.78;99253.81;5076119;28;45346;-64
2023/05/05 10:47:02;;;;;;;;;7.00;6.00;;;;;22.35;42.50;99253.69;5075843;28;45632;-65
2023/05/05 10:49:51;;;;;;;;;4.00;4.00;;;;;22.35;41.94;99247.47;5075224;28;45483;-65
2023/05/05 10:52:29;;;;;;;;;3.40;3.40;;;;;22.40;41.01;99234.50;5076030;28;45413;-64
2023/05/05 10:55:12;;;;;;;;;4.00;4.00;;;;;22.50;40.76;99233.56;5075870;27;45325;-64
2023/05/05 10:57:43;;;;;;;;;5.00;5.00;;;;;22.56;40.73;99238.41;5086790;27;45562;-64
2023/05/05 11:00:10;;;;;;;;;4.00;3.60;;;;;22.62;40.23;99237.03;5083177;27;45344;-64
2023/05/05 11:02:35;;;;;;;;;5.20;4.00;;;;;22.69;41.29;99199.69;5094023;27;45474;-64
2023/05/05 11:05:16;;;;;;;;;6.50;4.50;;;;;22.77;40.16;99224.94;5095652;27;45463;-64
2023/05/05 11:07:43;;;;;;;;;3.00;3.00;;;;;22.91;39.19;99207.59;5072163;27;46894;-67
2023/05/05 11:10:10;;;;;;;;;9.40;9.40;;;;;22.99;40.03;99196.97;5081641;27;45428;-61
2023/05/05 11:13:01;;;;;;;;;5.60;5.60;;;;;23.02;39.12;99198.53;5081640;27;45488;-62
2023/05/05 11:15:29;;;;;;;;;3.80;3.00;;;;;23.02;39.25;99196.69;5061071;27;45557;-62
2023/05/05 11:17:56;;;;;;;;;2.60;2.60;;;;;23.03;39.02;99198.41;5074802;27;47025;-62
2023/05/05 11:20:39;;;;;;;;;0.20;0.20;;;;;23.04;38.60;99210.88;5089379;27;45412;-62
2023/05/05 11:23:04;;;;;;;;;4.20;3.80;;;;;23.04;39.18;99196.56;5084062;27;45545;-62
2023/05/05 11:25:53;;;;;;;;;3.25;2.25;;;;;23.06;39.27;99224.19;5086659;27;45345;-62
2023/05/05 11:28:24;;;;;;;;;5.40;4.40;;;;;23.09;38.26;99200.56;5071186;27;46126;-61
2023/05/05 11:30:55;;;;;;;;;1.80;1.80;;;;;23.14;38.22;99224.31;5093059;27;45450;-63
2023/05/05 11:33:38;;;;;;;;;2.20;2.00;;;;;23.11;38.85;99195.03;5083702;27;45348;-63
2023/05/05 11:36:18;;;;;;;;;3.00;3.00;;;;;23.15;38.42;99199.97;5084595;27;45510;-64